Parker, SD

8:01 PM CDT on July 28, 2016 (GMT -0500)
Central Lennox | | Change Station

Elev 1355 ft 43.35 °N, 96.89 °W | Updated 10 seconds ago

Mostly Cloudy
Mostly Cloudy
75.4 °F
Feels Like 78 °F
N
2.9
Wind Variable Wind from NNE
Gusts 4.9 mph

Today
High -- | Low -- °F
--% Chance of Precip.
Yesterday
High -- | Low -- °F
Precip. -- in
Pressure 30.03 in
Visibility 10.0 miles
Clouds Few 4000 ft
Few 6000 ft
Mostly Cloudy 25000 ft
Heat Index 78 °F
Dew Point 62 °F
Humidity 62%
Rainfall in
Snow Depth Not available.
6:14 AM 8:54 PM
Waning Crescent, 27% visible
METAR KFSD 290056Z 04007KT 10SM FEW040 FEW060 BKN250 22/14 A3004 RMK AO2 SLP168 TCU DSNT SW T02170144
Pressure 30.03 in
Visibility 10.0 miles
Clouds Few 4000 ft
Few 6000 ft
Mostly Cloudy 25000 ft
Heat Index 78 °F
Dew Point 62 °F
Humidity 62%
Rainfall in
Snow Depth Not available.
6:14 AM 8:54 PM
Waning Crescent, 27% visible
METAR KFSD 290056Z 04007KT 10SM FEW040 FEW060 BKN250 22/14 A3004 RMK AO2 SLP168 TCU DSNT SW T02170144

10-Day Weather Forecast

Almanac

Astronomy

Jul. 28, 2016 Rise Set
Actual Time
Civil Twilight
Nautical Twilight
Astronomical Twilight
Moon
Length of Visible Light
Length of Day
Tomorrow will be .
, % of the Moon is Illuminated

Today's Extremes

State Highs State Lows

Community

WunderPhotos

Upload Photos

1,928,242 photos uploaded!

WunderBlog® & News

Nearby

Air Quality

  Air Quality AQ Index Pollutant
Not available.

Snow Depth

Station Depth Elevation

Earthquake Activity

City Distance Mag. Time & Date
Minimum magnitude displayed is 2.5.

Coastal Water Temperatures

Place Temperature

Stations

Nearby Weather Stations

Station Location Temp. Windchill Dew Point Humidity Wind Precip. Elev Updated Type
                   

Watches & Warnings

There are currently no watches in effect.